createdAt,value
2022-12-13T00:02:03.628Z,84.40
2022-12-13T00:04:30.508Z,84.41
2022-12-13T00:06:57.824Z,84.37
2022-12-13T00:09:24.658Z,84.52
2022-12-13T00:11:52.403Z,84.50
2022-12-13T00:14:19.148Z,84.54
2022-12-13T00:16:47.185Z,84.52
2022-12-13T00:19:15.165Z,84.50
2022-12-13T00:21:41.989Z,84.69
2022-12-13T00:24:08.686Z,84.62
2022-12-13T00:26:36.208Z,84.73
2022-12-13T00:29:04.809Z,84.73
2022-12-13T00:34:21.102Z,84.94
2022-12-13T00:36:48.345Z,85.26
2022-12-13T00:39:16.831Z,85.35
2022-12-13T00:41:46.649Z,85.49
2022-12-13T00:44:13.989Z,85.86
2022-12-13T00:46:41.241Z,85.71
2022-12-13T00:49:09.985Z,85.84
2022-12-13T00:51:36.795Z,86.05
2022-12-13T00:54:03.825Z,85.87
2022-12-13T00:56:31.207Z,86.10
2022-12-13T00:58:58.079Z,86.09
2022-12-13T01:01:29.606Z,86.52
2022-12-13T01:03:57.847Z,86.65
2022-12-13T01:06:37.447Z,86.45
2022-12-13T01:09:05.426Z,86.26
2022-12-13T01:11:32.289Z,86.42
2022-12-13T01:13:59.106Z,86.54
2022-12-13T01:16:25.959Z,86.48
2022-12-13T01:18:52.934Z,86.78
2022-12-13T01:21:22.115Z,87.07
2022-12-13T01:23:49.288Z,87.37
2022-12-13T01:26:17.984Z,87.51
2022-12-13T01:28:44.775Z,87.55
2022-12-13T01:31:12.992Z,87.78
2022-12-13T01:33:41.916Z,87.75
2022-12-13T01:36:10.939Z,87.77
2022-12-13T01:38:38.410Z,87.88
2022-12-13T01:41:08.889Z,87.90
2022-12-13T01:43:44.129Z,88.13
2022-12-13T01:46:11.052Z,88.06
2022-12-13T01:48:40.955Z,88.42
2022-12-13T01:51:10.909Z,88.38
2022-12-13T01:53:39.774Z,88.39
2022-12-13T01:56:09.122Z,88.58
2022-12-13T01:58:37.008Z,88.45
2022-12-13T02:01:04.027Z,88.47
2022-12-13T02:03:31.757Z,88.35
2022-12-13T02:06:13.372Z,88.12
2022-12-13T02:08:41.582Z,88.38
2022-12-13T02:11:09.329Z,88.22
2022-12-13T02:13:38.430Z,88.55
2022-12-13T02:16:25.583Z,88.28
2022-12-13T02:19:05.350Z,88.32
2022-12-13T02:21:35.488Z,88.18
2022-12-13T02:24:21.360Z,88.32
2022-12-13T02:26:48.156Z,88.31
2022-12-13T02:29:30.971Z,88.20
2022-12-13T02:32:01.089Z,88.53
2022-12-13T02:34:34.142Z,88.30
2022-12-13T02:37:17.900Z,88.54
2022-12-13T02:40:05.506Z,88.87
2022-12-13T02:42:37.603Z,88.74
2022-12-13T02:45:10.913Z,88.94
2022-12-13T02:47:41.867Z,88.84
2022-12-13T02:50:10.447Z,89.06
2022-12-13T02:52:38.000Z,88.96
2022-12-13T02:55:08.533Z,89.00
2022-12-13T02:57:40.553Z,88.91
2022-12-13T03:00:21.111Z,89.19
2022-12-13T03:03:08.433Z,88.82
2022-12-13T03:06:02.967Z,88.95
2022-12-13T03:08:41.804Z,88.88
2022-12-13T03:11:11.314Z,88.72
2022-12-13T03:13:38.312Z,88.97
2022-12-13T03:16:23.819Z,88.71
2022-12-13T03:18:53.359Z,88.87
2022-12-13T03:21:21.869Z,88.75
2022-12-13T03:23:48.926Z,88.76
2022-12-13T03:26:18.549Z,88.66
2022-12-13T03:28:45.349Z,88.99
2022-12-13T03:31:12.202Z,88.69
2022-12-13T03:33:39.240Z,88.59
2022-12-13T03:36:06.548Z,88.58
2022-12-13T03:38:34.391Z,88.85
2022-12-13T03:41:02.741Z,88.55
2022-12-13T03:43:29.707Z,88.67
2022-12-13T03:45:56.501Z,88.47
2022-12-13T03:48:24.164Z,88.67
2022-12-13T03:50:52.010Z,88.48
2022-12-13T03:53:32.349Z,88.68
2022-12-13T03:56:01.695Z,88.29
2022-12-13T03:58:35.349Z,88.44
2022-12-13T04:01:04.542Z,88.08
2022-12-13T04:03:31.228Z,88.35
2022-12-13T04:05:58.014Z,88.24
2022-12-13T04:08:24.827Z,88.29
2022-12-13T04:10:51.657Z,88.12
2022-12-13T04:13:33.375Z,88.30
2022-12-13T04:16:00.971Z,88.09
2022-12-13T04:18:27.969Z,88.24
2022-12-13T04:20:54.826Z,88.22
2022-12-13T04:23:21.467Z,88.18
2022-12-13T04:25:48.307Z,88.16
2022-12-13T04:28:21.813Z,88.24
2022-12-13T04:30:53.811Z,88.02
2022-12-13T04:33:24.465Z,88.25
2022-12-13T04:35:51.291Z,88.05
2022-12-13T04:38:18.246Z,88.36
2022-12-13T04:40:45.043Z,88.39
2022-12-13T04:43:11.839Z,88.18
2022-12-13T04:45:38.778Z,88.21
2022-12-13T04:48:05.915Z,88.31
2022-12-13T04:50:32.946Z,88.66
2022-12-13T04:52:59.838Z,88.41
2022-12-13T04:55:26.709Z,88.59
2022-12-13T04:57:53.441Z,88.48
2022-12-13T05:00:22.400Z,88.69
2022-12-13T05:02:49.456Z,88.40
2022-12-13T05:05:16.496Z,88.41
2022-12-13T05:07:43.485Z,88.28
2022-12-13T05:10:37.469Z,88.36
2022-12-13T05:13:00.404Z,88.54
2022-12-13T05:15:27.796Z,88.49
2022-12-13T05:17:54.602Z,88.63
2022-12-13T05:20:21.276Z,88.53
2022-12-13T05:22:48.111Z,88.83
2022-12-13T05:25:15.032Z,88.81
2022-12-13T05:27:42.077Z,88.65
2022-12-13T05:30:09.350Z,88.66
2022-12-13T05:32:43.524Z,88.77
2022-12-13T05:35:22.734Z,88.70
2022-12-13T05:37:54.606Z,88.70
2022-12-13T05:40:31.938Z,88.64
2022-12-13T05:43:00.677Z,88.47
2022-12-13T05:45:29.490Z,88.73
2022-12-13T05:47:56.234Z,88.44
2022-12-13T05:50:26.749Z,88.78
2022-12-13T05:52:54.267Z,88.40
2022-12-13T05:55:21.085Z,88.69
2022-12-13T05:57:50.056Z,88.44
2022-12-13T06:00:30.156Z,88.57
2022-12-13T06:03:00.568Z,88.45
2022-12-13T06:05:29.303Z,88.60
2022-12-13T06:07:57.543Z,88.48
2022-12-13T06:10:24.903Z,88.37
2022-12-13T06:13:03.405Z,88.45
2022-12-13T06:15:34.759Z,88.40
2022-12-13T06:18:01.902Z,88.42
2022-12-13T06:20:28.747Z,88.58
2022-12-13T06:22:55.508Z,88.25
2022-12-13T06:25:30.726Z,88.44
2022-12-13T06:28:00.739Z,88.32
2022-12-13T06:30:28.250Z,88.40
2022-12-13T06:32:55.594Z,88.38
2022-12-13T06:35:28.617Z,88.30
2022-12-13T06:38:01.468Z,88.00
2022-12-13T06:40:30.532Z,88.00
2022-12-13T06:42:57.593Z,87.99
2022-12-13T06:45:24.409Z,88.13
2022-12-13T06:47:51.220Z,87.97
2022-12-13T06:50:18.049Z,87.85
2022-12-13T06:52:46.399Z,87.77
2022-12-13T06:55:13.750Z,87.93
2022-12-13T06:57:41.337Z,87.81
2022-12-13T07:00:09.313Z,87.77
2022-12-13T07:02:36.396Z,87.79
2022-12-13T07:05:03.337Z,87.76
2022-12-13T07:07:31.133Z,87.79
2022-12-13T07:09:57.988Z,87.84
2022-12-13T07:12:24.795Z,87.54
2022-12-13T07:14:52.310Z,87.52
2022-12-13T07:17:32.320Z,87.37
2022-12-13T07:20:01.185Z,87.50
2022-12-13T07:22:28.129Z,87.22
2022-12-13T07:24:54.895Z,87.20
2022-12-13T07:27:21.532Z,87.15
2022-12-13T07:29:49.962Z,87.26
2022-12-13T07:32:16.666Z,86.96
2022-12-13T07:34:43.640Z,87.19
2022-12-13T07:37:30.483Z,87.12
2022-12-13T07:40:03.287Z,86.85
2022-12-13T07:42:31.505Z,86.81
2022-12-13T07:44:58.206Z,86.69
2022-12-13T07:47:29.493Z,86.70
2022-12-13T07:49:56.397Z,86.48
2022-12-13T07:52:23.271Z,86.44
2022-12-13T07:54:50.127Z,86.41
2022-12-13T07:57:16.898Z,86.28
2022-12-13T08:00:15.016Z,85.75
2022-12-13T08:02:41.955Z,85.70
2022-12-13T08:05:25.765Z,85.31
2022-12-13T08:07:54.272Z,85.29
2022-12-13T08:10:21.170Z,85.04
2022-12-13T08:12:47.907Z,84.87
2022-12-13T08:15:14.616Z,85.01
2022-12-13T08:17:41.451Z,84.95
2022-12-13T08:20:08.353Z,84.74
2022-12-13T08:22:35.992Z,84.87
2022-12-13T08:25:03.038Z,84.74
2022-12-13T08:27:29.788Z,84.69
2022-12-13T08:29:56.854Z,84.57
2022-12-13T08:32:23.695Z,84.56
2022-12-13T08:34:50.425Z,84.69
2022-12-13T08:37:17.547Z,84.66
2022-12-13T08:39:44.776Z,84.31
2022-12-13T08:42:14.901Z,84.51
2022-12-13T08:44:44.840Z,84.33
2022-12-13T08:47:11.543Z,84.46
2022-12-13T08:49:38.410Z,84.35
2022-12-13T08:52:05.118Z,84.31
2022-12-13T08:54:33.207Z,84.15
2022-12-13T08:57:01.818Z,83.98
2022-12-13T08:59:28.872Z,84.16
2022-12-13T09:01:58.767Z,84.19
2022-12-13T09:04:31.775Z,83.92
2022-12-13T09:07:01.668Z,84.06
2022-12-13T09:09:29.486Z,84.02
2022-12-13T09:11:59.084Z,83.93
2022-12-13T09:14:34.195Z,83.70
2022-12-13T09:17:03.477Z,83.93
2022-12-13T09:19:36.956Z,83.82
2022-12-13T09:22:04.393Z,83.59
2022-12-13T09:24:36.251Z,83.35
2022-12-13T09:27:09.346Z,83.58
2022-12-13T09:29:37.395Z,83.26
2022-12-13T09:32:04.456Z,83.34
2022-12-13T09:34:33.311Z,83.06
2022-12-13T09:37:01.753Z,83.30
2022-12-13T09:39:29.075Z,83.23
2022-12-13T09:42:01.393Z,83.23
2022-12-13T09:44:43.965Z,83.09
2022-12-13T09:47:23.216Z,82.94
2022-12-13T09:49:53.767Z,82.58
2022-12-13T09:52:22.706Z,82.69
2022-12-13T09:54:53.400Z,82.36
2022-12-13T09:57:31.447Z,82.71
2022-12-13T10:00:05.631Z,82.29
2022-12-13T10:02:43.435Z,82.46
2022-12-13T10:05:39.553Z,82.13
2022-12-13T10:08:18.313Z,82.20
2022-12-13T10:10:45.506Z,81.95
2022-12-13T10:13:27.767Z,82.02
2022-12-13T10:15:57.517Z,81.94
2022-12-13T10:18:33.263Z,81.85
2022-12-13T10:21:01.640Z,81.65
2022-12-13T10:23:42.794Z,81.57
2022-12-13T10:26:24.305Z,81.47
2022-12-13T10:29:01.131Z,81.36
2022-12-13T10:31:28.073Z,81.10
2022-12-13T10:33:56.216Z,81.30
2022-12-13T10:36:38.605Z,81.13
2022-12-13T10:39:05.349Z,81.09
2022-12-13T10:41:32.075Z,80.93
2022-12-13T10:44:10.089Z,81.03
2022-12-13T10:46:38.581Z,80.87
2022-12-13T10:49:16.154Z,80.69
2022-12-13T10:51:43.125Z,80.67
2022-12-13T10:54:38.398Z,80.56
2022-12-13T10:57:05.576Z,80.54
2022-12-13T10:59:34.162Z,80.60
2022-12-13T11:02:03.955Z,80.63
2022-12-13T11:04:31.894Z,80.46
2022-12-13T11:07:18.615Z,80.58
2022-12-13T11:09:45.540Z,80.42
2022-12-13T11:12:24.576Z,80.60
2022-12-13T11:14:54.673Z,80.66
2022-12-13T11:17:22.835Z,80.49
2022-12-13T11:19:52.159Z,80.54
2022-12-13T11:22:21.148Z,80.35
2022-12-13T11:24:52.063Z,80.45
2022-12-13T11:27:23.662Z,80.30
2022-12-13T11:30:09.293Z,80.42
2022-12-13T11:32:46.489Z,80.42
2022-12-13T11:35:16.528Z,80.52
2022-12-13T11:37:55.343Z,80.43
2022-12-13T11:40:45.156Z,80.36
2022-12-13T11:43:29.432Z,80.21
2022-12-13T11:45:58.502Z,79.96
2022-12-13T11:48:25.708Z,80.11
2022-12-13T11:50:55.408Z,79.83
2022-12-13T11:53:35.211Z,79.92
2022-12-13T11:56:08.045Z,80.09
2022-12-13T11:59:02.460Z,79.94
2022-12-13T12:01:38.406Z,80.03
2022-12-13T12:04:05.782Z,80.21
2022-12-13T12:06:38.752Z,80.06
2022-12-13T12:09:15.012Z,79.80
2022-12-13T12:11:47.548Z,79.86
2022-12-13T12:14:20.720Z,79.49
2022-12-13T12:16:51.420Z,79.76
2022-12-13T12:19:20.826Z,79.71
2022-12-13T12:25:02.247Z,79.65
2022-12-13T12:27:29.106Z,79.35
2022-12-13T12:30:04.449Z,79.51
2022-12-13T12:32:31.306Z,79.48
2022-12-13T12:35:13.137Z,79.68
2022-12-13T12:37:39.983Z,79.90
2022-12-13T12:40:52.138Z,80.18
2022-12-13T12:43:31.331Z,80.37
2022-12-13T12:46:17.100Z,80.29
2022-12-13T12:49:00.335Z,80.41
2022-12-13T12:51:35.076Z,80.59
2022-12-13T12:54:20.933Z,80.73
2022-12-13T12:56:54.068Z,80.83
2022-12-13T12:59:41.054Z,80.82
2022-12-13T13:02:19.584Z,80.67
2022-12-13T13:04:50.535Z,80.75
2022-12-13T13:07:25.475Z,80.99
2022-12-13T13:09:55.083Z,81.02
2022-12-13T13:12:30.456Z,80.99
2022-12-13T13:14:58.265Z,81.21
2022-12-13T13:17:24.946Z,81.50
2022-12-13T13:20:12.337Z,81.52
2022-12-13T13:22:44.275Z,81.75
2022-12-13T13:25:20.797Z,82.10
2022-12-13T13:27:50.894Z,81.88
2022-12-13T13:30:22.029Z,81.80
2022-12-13T13:32:49.717Z,81.79
2022-12-13T13:35:32.635Z,81.85
2022-12-13T13:38:00.916Z,81.80
2022-12-13T13:40:31.001Z,81.57
2022-12-13T13:43:02.897Z,81.84
2022-12-13T13:45:29.995Z,81.86
2022-12-13T13:47:56.679Z,81.62
2022-12-13T13:50:44.002Z,81.79
2022-12-13T13:53:33.621Z,81.66
2022-12-13T13:56:36.378Z,81.95
2022-12-13T13:59:03.957Z,82.39
2022-12-13T14:01:49.481Z,82.26
2022-12-13T14:04:28.809Z,82.28
2022-12-13T14:07:00.716Z,82.48
2022-12-13T14:09:47.443Z,82.51
2022-12-13T14:12:23.639Z,82.57
2022-12-13T14:15:09.457Z,82.47
2022-12-13T14:18:11.329Z,82.59
2022-12-13T14:20:45.824Z,82.66
2022-12-13T14:23:35.960Z,82.62
2022-12-13T14:26:18.750Z,82.78
2022-12-13T14:28:45.594Z,82.87
2022-12-13T14:31:21.863Z,82.99
2022-12-13T14:33:52.110Z,83.23
2022-12-13T14:36:26.319Z,83.31
2022-12-13T14:39:00.400Z,83.25
2022-12-13T14:41:27.226Z,83.16
2022-12-13T14:43:54.087Z,83.38
2022-12-13T14:46:21.025Z,83.44
2022-12-13T14:48:53.314Z,83.48
2022-12-13T14:51:28.668Z,83.47
2022-12-13T14:53:55.817Z,83.58
2022-12-13T14:56:27.557Z,83.54
2022-12-13T14:59:00.135Z,83.53
2022-12-13T15:01:30.175Z,83.71
2022-12-13T15:04:15.774Z,83.64
2022-12-13T15:06:48.416Z,83.33
2022-12-13T15:09:16.421Z,83.67
2022-12-13T15:11:44.306Z,83.74
2022-12-13T15:14:16.398Z,83.86
2022-12-13T15:16:47.788Z,83.88
2022-12-13T15:19:29.466Z,83.82
2022-12-13T15:22:14.843Z,83.98
2022-12-13T15:24:48.855Z,83.81
2022-12-13T15:27:26.685Z,83.75
2022-12-13T15:29:56.696Z,83.97
2022-12-13T15:32:23.550Z,83.81
2022-12-13T15:34:51.684Z,84.05
2022-12-13T15:37:28.298Z,84.14
2022-12-13T15:39:59.233Z,84.21
2022-12-13T15:42:35.368Z,83.91
2022-12-13T15:45:05.263Z,84.20
2022-12-13T15:47:32.555Z,84.08
2022-12-13T15:50:01.165Z,84.01
2022-12-13T15:52:34.208Z,83.94
2022-12-13T15:55:07.174Z,83.96
2022-12-13T15:57:35.700Z,83.99
2022-12-13T16:00:05.540Z,84.15
2022-12-13T16:02:48.631Z,84.18
2022-12-13T16:05:23.079Z,84.09
2022-12-13T16:07:56.396Z,84.16
2022-12-13T16:10:25.305Z,84.37
2022-12-13T16:12:53.701Z,84.12
2022-12-13T16:15:48.270Z,84.42
2022-12-13T16:18:44.911Z,84.43
2022-12-13T16:21:12.257Z,84.24
2022-12-13T16:23:48.818Z,84.21
2022-12-13T16:26:21.769Z,84.38
2022-12-13T16:28:48.601Z,84.46
2022-12-13T16:31:21.161Z,84.25
2022-12-13T16:33:48.197Z,84.31
2022-12-13T16:36:15.141Z,84.49
2022-12-13T16:38:41.958Z,84.31
2022-12-13T16:41:09.472Z,84.34
2022-12-13T16:43:39.967Z,84.24
2022-12-13T16:47:14.616Z,84.25
2022-12-13T16:48:54.682Z,84.33
2022-12-13T16:51:22.112Z,84.59
2022-12-13T16:53:49.113Z,84.43
2022-12-13T16:56:21.820Z,84.38
2022-12-13T16:58:50.525Z,84.38
2022-12-13T17:01:21.066Z,84.46
2022-12-13T17:03:48.325Z,84.54
2022-12-13T17:06:16.089Z,84.70
2022-12-13T17:08:42.911Z,84.92
2022-12-13T17:11:17.815Z,84.83
2022-12-13T17:13:47.753Z,85.11
2022-12-13T17:16:14.907Z,85.01
2022-12-13T17:18:42.677Z,85.13
2022-12-13T17:21:10.235Z,85.11
2022-12-13T17:23:37.469Z,85.21
2022-12-13T17:26:08.196Z,85.27
2022-12-13T17:28:35.256Z,85.38
2022-12-13T17:31:09.019Z,85.20
2022-12-13T17:33:36.679Z,85.30
2022-12-13T17:36:06.533Z,85.26
2022-12-13T17:38:33.456Z,85.14
2022-12-13T17:41:00.719Z,85.15
2022-12-13T17:43:34.403Z,85.35
2022-12-13T17:46:06.978Z,84.99
2022-12-13T17:48:40.397Z,85.27
2022-12-13T17:51:08.587Z,85.03
2022-12-13T17:53:36.191Z,85.06
2022-12-13T17:56:06.046Z,85.06
2022-12-13T17:58:33.057Z,85.03
2022-12-13T18:01:09.477Z,84.86
2022-12-13T18:03:37.154Z,85.07
2022-12-13T18:06:03.914Z,85.10
2022-12-13T18:08:34.024Z,85.15
2022-12-13T18:11:32.332Z,85.08
2022-12-13T18:13:47.976Z,84.80
2022-12-13T18:16:22.413Z,84.95
2022-12-13T18:18:54.971Z,85.08
2022-12-13T18:21:23.521Z,85.06
2022-12-13T18:23:54.738Z,85.13
2022-12-13T18:26:24.186Z,85.00
2022-12-13T18:28:51.126Z,85.14
2022-12-13T18:31:20.246Z,85.14
2022-12-13T18:33:48.047Z,85.36
2022-12-13T18:36:16.652Z,85.22
2022-12-13T18:38:43.529Z,85.25
2022-12-13T18:41:12.681Z,85.29
2022-12-13T18:43:39.443Z,85.25
2022-12-13T18:46:06.573Z,85.16
2022-12-13T18:48:33.895Z,85.27
2022-12-13T18:51:01.132Z,85.09
2022-12-13T18:53:28.724Z,85.18
2022-12-13T18:56:02.731Z,85.30
2022-12-13T18:58:29.564Z,85.51
2022-12-13T19:00:57.448Z,85.31
2022-12-13T19:03:26.112Z,85.32
2022-12-13T19:05:53.238Z,85.55
2022-12-13T19:08:20.056Z,85.59
2022-12-13T19:10:48.022Z,85.38
2022-12-13T19:13:15.588Z,85.39
2022-12-13T19:15:42.544Z,85.51
2022-12-13T19:18:11.581Z,85.24
2022-12-13T19:20:44.529Z,85.46
2022-12-13T19:23:11.391Z,85.43
2022-12-13T19:25:38.546Z,85.24
2022-12-13T19:28:05.406Z,85.49
2022-12-13T19:30:32.237Z,85.38
2022-12-13T19:32:58.971Z,85.32
2022-12-13T19:35:26.210Z,85.35
2022-12-13T19:37:53.424Z,85.67
2022-12-13T19:40:20.207Z,85.42
2022-12-13T19:42:47.978Z,85.42
2022-12-13T19:45:14.935Z,85.66
2022-12-13T19:47:42.527Z,85.53
2022-12-13T19:50:13.498Z,85.53
2022-12-13T19:52:40.247Z,85.64
2022-12-13T19:55:07.509Z,85.59
2022-12-13T19:57:34.303Z,85.65
2022-12-13T20:00:02.022Z,85.86
2022-12-13T20:02:29.560Z,85.76
2022-12-13T20:04:56.325Z,85.73
2022-12-13T20:07:24.044Z,85.65
2022-12-13T20:09:50.937Z,85.60
2022-12-13T20:12:17.656Z,85.84
2022-12-13T20:14:44.500Z,86.04
2022-12-13T20:17:11.301Z,86.10
2022-12-13T20:19:38.107Z,86.19
2022-12-13T20:22:05.598Z,86.09
2022-12-13T20:24:32.415Z,86.32
2022-12-13T20:26:59.130Z,86.28
2022-12-13T20:29:25.933Z,86.19
2022-12-13T20:31:53.980Z,86.28
2022-12-13T20:34:20.899Z,86.24
2022-12-13T20:36:47.693Z,86.42
2022-12-13T20:39:15.590Z,86.45
2022-12-13T20:41:42.434Z,86.73
2022-12-13T20:44:11.275Z,86.46
2022-12-13T20:46:38.263Z,86.58
2022-12-13T20:49:06.545Z,86.71
2022-12-13T20:51:34.700Z,86.67
2022-12-13T20:54:02.789Z,86.70
2022-12-13T20:56:32.355Z,86.66
2022-12-13T20:58:59.215Z,86.82
2022-12-13T21:01:28.693Z,86.67
2022-12-13T21:03:56.538Z,86.68
2022-12-13T21:06:23.768Z,86.71
2022-12-13T21:09:00.174Z,86.64
2022-12-13T21:11:29.063Z,86.88
2022-12-13T21:14:07.425Z,86.86
2022-12-13T21:16:39.312Z,86.70
2022-12-13T21:19:07.385Z,86.68
2022-12-13T21:21:34.828Z,86.76
2022-12-13T21:24:03.315Z,86.60
2022-12-13T21:26:35.366Z,86.89
2022-12-13T21:29:05.459Z,86.71
2022-12-13T21:31:32.515Z,86.93
2022-12-13T21:34:01.298Z,86.73
2022-12-13T21:36:29.534Z,86.87
2022-12-13T21:38:57.807Z,86.66
2022-12-13T21:41:25.094Z,86.79
2022-12-13T21:43:52.252Z,86.54
2022-12-13T21:46:20.220Z,86.64
2022-12-13T21:48:47.984Z,86.59
2022-12-13T21:51:16.010Z,86.56
2022-12-13T21:53:44.056Z,86.82
2022-12-13T21:56:30.557Z,86.50
2022-12-13T21:59:15.679Z,86.58
2022-12-13T22:02:03.159Z,86.58
2022-12-13T22:04:30.118Z,86.61
2022-12-13T22:06:56.880Z,86.69
2022-12-13T22:09:23.768Z,86.65
2022-12-13T22:11:50.515Z,86.57
2022-12-13T22:14:17.584Z,86.95
2022-12-13T22:16:44.595Z,86.89
2022-12-13T22:19:14.852Z,86.77
2022-12-13T22:21:42.165Z,86.74
2022-12-13T22:24:09.440Z,86.72
2022-12-13T22:26:37.235Z,86.93
2022-12-13T22:29:04.167Z,86.79
2022-12-13T22:31:31.895Z,86.88
2022-12-13T22:33:58.656Z,86.84
2022-12-13T22:36:25.699Z,86.83
2022-12-13T22:38:53.089Z,86.88
2022-12-13T22:41:22.186Z,86.71
2022-12-13T22:43:49.043Z,86.72
2022-12-13T22:46:17.418Z,86.59
2022-12-13T22:48:44.471Z,86.65
2022-12-13T22:51:13.175Z,86.60
2022-12-13T22:53:40.794Z,86.96
2022-12-13T22:56:10.057Z,86.95
2022-12-13T22:58:37.540Z,86.71
2022-12-13T23:01:12.511Z,86.68
2022-12-13T23:03:40.461Z,86.91
2022-12-13T23:06:10.326Z,86.78
2022-12-13T23:08:43.189Z,86.76
2022-12-13T23:11:29.260Z,86.53
2022-12-13T23:13:57.306Z,86.65
2022-12-13T23:16:25.364Z,86.45
2022-12-13T23:19:10.654Z,86.41
2022-12-13T23:21:40.735Z,86.53
2022-12-13T23:24:07.544Z,86.59
2022-12-13T23:26:34.412Z,86.67
2022-12-13T23:29:02.772Z,86.72
2022-12-13T23:31:31.038Z,86.80
2022-12-13T23:33:57.724Z,86.66
2022-12-13T23:36:25.428Z,86.85
2022-12-13T23:38:52.209Z,86.73
2022-12-13T23:41:23.672Z,86.73
2022-12-13T23:43:51.694Z,86.60
2022-12-13T23:46:19.776Z,86.64
2022-12-13T23:48:46.927Z,86.68
2022-12-13T23:51:14.725Z,86.52
2022-12-13T23:53:41.782Z,86.78
2022-12-13T23:56:09.889Z,86.65
2022-12-13T23:58:38.682Z,86.71
